createdAt,value
2017-05-16T00:00:01.415Z,15.54
2017-05-16T00:00:41.989Z,15.67
2017-05-16T00:01:22.559Z,15.56
2017-05-16T00:02:03.125Z,15.5
2017-05-16T00:02:43.718Z,15.5
2017-05-16T00:03:24.310Z,15.46
2017-05-16T00:04:04.884Z,15.54
2017-05-16T00:04:45.472Z,15.49
2017-05-16T00:05:26.058Z,15.5
2017-05-16T00:06:06.635Z,15.47
2017-05-16T00:06:47.229Z,15.47
2017-05-16T00:07:27.802Z,15.5
2017-05-16T00:08:08.391Z,15.46
2017-05-16T00:08:48.984Z,15.51
2017-05-16T00:09:29.574Z,15.49
2017-05-16T00:10:10.200Z,15.47
2017-05-16T00:10:50.758Z,15.54
2017-05-16T00:11:31.340Z,15.47
2017-05-16T00:12:11.960Z,15.53
2017-05-16T00:12:52.529Z,15.5
2017-05-16T00:13:33.108Z,15.49
2017-05-16T00:14:13.718Z,15.54
2017-05-16T00:14:54.295Z,15.53
2017-05-16T00:15:34.890Z,15.51
2017-05-16T00:16:15.460Z,15.54
2017-05-16T00:16:56.048Z,15.51
2017-05-16T00:17:36.662Z,15.59
2017-05-16T00:18:17.260Z,15.59
2017-05-16T00:18:57.822Z,15.57
2017-05-16T00:19:38.442Z,15.57
2017-05-16T00:20:18.971Z,15.59
2017-05-16T00:20:59.536Z,15.51
2017-05-16T00:21:40.106Z,15.56
2017-05-16T00:22:20.723Z,15.65
2017-05-16T00:23:01.314Z,15.51
2017-05-16T00:23:41.884Z,15.54
2017-05-16T00:24:22.451Z,15.53
2017-05-16T00:25:03.031Z,15.53
2017-05-16T00:25:43.605Z,15.47
2017-05-16T00:26:24.172Z,15.57
2017-05-16T00:27:04.763Z,15.56
2017-05-16T00:27:45.340Z,15.62
2017-05-16T00:28:25.927Z,15.56
2017-05-16T00:29:06.557Z,15.5
2017-05-16T00:29:47.123Z,15.5
2017-05-16T00:30:27.699Z,15.51
2017-05-16T00:31:08.272Z,15.53
2017-05-16T00:31:48.853Z,15.5
2017-05-16T00:32:29.437Z,15.62
2017-05-16T00:33:10.037Z,15.59
2017-05-16T00:33:50.600Z,15.53
2017-05-16T00:34:31.193Z,15.56
2017-05-16T00:35:11.780Z,15.62
2017-05-16T00:35:52.386Z,15.62
2017-05-16T00:36:32.924Z,15.65
2017-05-16T00:37:13.498Z,15.62
2017-05-16T00:37:54.111Z,15.6
2017-05-16T00:38:34.703Z,15.6
2017-05-16T00:39:15.323Z,15.62
2017-05-16T00:39:55.884Z,15.62
2017-05-16T00:40:36.461Z,15.62
2017-05-16T00:41:17.046Z,15.59
2017-05-16T00:41:57.620Z,15.65
2017-05-16T00:42:38.212Z,15.57
2017-05-16T00:43:18.799Z,15.6
2017-05-16T00:43:59.388Z,15.69
2017-05-16T00:44:39.984Z,15.57
2017-05-16T00:45:20.555Z,15.6
2017-05-16T00:46:01.131Z,15.62
2017-05-16T00:46:41.721Z,15.6
2017-05-16T00:47:22.302Z,15.56
2017-05-16T00:48:02.878Z,15.69
2017-05-16T00:48:43.469Z,15.59
2017-05-16T00:49:24.028Z,15.71
2017-05-16T00:50:04.616Z,15.6
2017-05-16T00:50:45.192Z,15.62
2017-05-16T00:51:25.768Z,15.69
2017-05-16T00:52:06.383Z,15.6
2017-05-16T00:52:46.961Z,15.57
2017-05-16T00:53:27.518Z,15.57
2017-05-16T00:54:08.088Z,15.64
2017-05-16T00:54:48.688Z,15.69
2017-05-16T00:55:29.270Z,15.6
2017-05-16T00:56:09.868Z,15.69
2017-05-16T00:56:50.451Z,15.56
2017-05-16T00:57:31.047Z,15.57
2017-05-16T00:58:11.643Z,15.56
2017-05-16T00:58:52.236Z,15.54
2017-05-16T00:59:33.752Z,15.6
2017-05-16T01:00:14.333Z,15.65
2017-05-16T01:00:54.928Z,15.54
2017-05-16T01:01:35.519Z,15.62
2017-05-16T01:02:16.092Z,15.62
2017-05-16T01:02:56.683Z,15.57
2017-05-16T01:03:37.252Z,15.56
2017-05-16T01:04:17.858Z,15.59
2017-05-16T01:04:58.440Z,15.59
2017-05-16T01:05:39.027Z,15.68
2017-05-16T01:06:19.599Z,15.6
2017-05-16T01:07:00.192Z,15.69
2017-05-16T01:07:40.806Z,15.54
2017-05-16T01:08:21.380Z,15.59
2017-05-16T01:09:01.948Z,15.67
2017-05-16T01:09:42.520Z,15.57
2017-05-16T01:10:23.088Z,15.69
2017-05-16T01:11:03.664Z,15.65
2017-05-16T01:11:44.256Z,15.65
2017-05-16T01:12:24.850Z,15.6
2017-05-16T01:13:05.423Z,15.57
2017-05-16T01:13:45.992Z,15.57
2017-05-16T01:14:26.561Z,15.65
2017-05-16T01:15:07.137Z,15.5
2017-05-16T01:15:47.722Z,15.62
2017-05-16T01:16:28.291Z,15.62
2017-05-16T01:17:08.866Z,15.59
2017-05-16T01:17:49.479Z,15.62
2017-05-16T01:18:30.051Z,15.59
2017-05-16T01:19:10.641Z,15.54
2017-05-16T01:19:51.253Z,15.47
2017-05-16T01:20:31.826Z,15.51
2017-05-16T01:21:12.415Z,15.49
2017-05-16T01:21:52.990Z,15.51
2017-05-16T01:22:33.643Z,15.44
2017-05-16T01:23:14.199Z,15.53
2017-05-16T01:23:54.784Z,15.49
2017-05-16T01:24:35.366Z,15.5
2017-05-16T01:25:15.944Z,15.53
2017-05-16T01:25:56.530Z,15.51
2017-05-16T01:26:37.105Z,15.49
2017-05-16T01:27:17.680Z,15.47
2017-05-16T01:27:58.278Z,15.5
2017-05-16T01:28:38.846Z,15.44
2017-05-16T01:29:19.420Z,15.43
2017-05-16T01:30:00.021Z,15.38
2017-05-16T01:30:40.602Z,15.41
2017-05-16T01:31:21.173Z,15.44
2017-05-16T01:32:01.746Z,15.44
2017-05-16T01:32:42.328Z,15.39
2017-05-16T01:33:22.910Z,15.34
2017-05-16T01:34:03.498Z,15.41
2017-05-16T01:34:44.072Z,15.32
2017-05-16T01:35:24.641Z,15.38
2017-05-16T01:36:05.213Z,15.35
2017-05-16T01:36:45.824Z,15.27
2017-05-16T01:37:26.401Z,15.36
2017-05-16T01:38:07.009Z,15.35
2017-05-16T01:38:47.543Z,15.29
2017-05-16T01:39:28.109Z,15.35
2017-05-16T01:40:08.685Z,15.28
2017-05-16T01:40:49.256Z,15.29
2017-05-16T01:41:29.826Z,15.29
2017-05-16T01:42:10.494Z,15.32
2017-05-16T01:42:51.032Z,15.32
2017-05-16T01:43:31.665Z,15.28
2017-05-16T01:44:12.236Z,15.31
2017-05-16T01:44:52.843Z,15.31
2017-05-16T01:45:33.423Z,15.2
2017-05-16T01:46:13.991Z,15.29
2017-05-16T01:46:54.611Z,15.2
2017-05-16T01:47:35.170Z,15.21
2017-05-16T01:48:15.742Z,15.2
2017-05-16T01:49:02.916Z,15.23
2017-05-16T01:49:43.460Z,15.2
2017-05-16T01:50:23.999Z,15.21
2017-05-16T01:51:04.541Z,15.29
2017-05-16T01:51:45.079Z,15.21
2017-05-16T01:52:25.735Z,15.16
2017-05-16T01:53:06.281Z,15.17
2017-05-16T01:53:46.840Z,15.14
2017-05-16T01:54:27.409Z,15.17
2017-05-16T01:55:07.943Z,15.19
2017-05-16T01:55:48.493Z,15.17
2017-05-16T01:56:29.044Z,15.13
2017-05-16T01:57:09.587Z,15.2
2017-05-16T01:57:50.123Z,15.16
2017-05-16T01:58:30.656Z,15.03
2017-05-16T01:59:11.188Z,15.09
2017-05-16T01:59:51.765Z,15.09
2017-05-16T02:00:32.260Z,15.11
2017-05-16T02:01:12.802Z,15.03
2017-05-16T02:01:53.350Z,15.1
2017-05-16T02:02:33.909Z,15.11
2017-05-16T02:03:14.456Z,15.07
2017-05-16T02:03:55.001Z,15.02
2017-05-16T02:04:35.548Z,15.03
2017-05-16T02:05:16.101Z,15.01
2017-05-16T02:05:56.624Z,15.06
2017-05-16T02:06:37.158Z,15.06
2017-05-16T02:07:17.688Z,15.02
2017-05-16T02:07:58.235Z,15.07
2017-05-16T02:08:38.767Z,15.01
2017-05-16T02:09:19.300Z,15.01
2017-05-16T02:09:59.847Z,15.03
2017-05-16T02:10:40.427Z,15.07
2017-05-16T02:11:20.954Z,14.99
2017-05-16T02:12:01.501Z,15.1
2017-05-16T02:12:42.051Z,15.02
2017-05-16T02:13:22.601Z,15.11
2017-05-16T02:14:03.157Z,15.13
2017-05-16T02:14:43.703Z,14.99
2017-05-16T02:15:24.268Z,15.01
2017-05-16T02:16:04.832Z,15.03
2017-05-16T02:16:45.362Z,14.91
2017-05-16T02:17:25.910Z,14.94
2017-05-16T02:18:06.451Z,14.96
2017-05-16T02:18:47.002Z,14.99
2017-05-16T02:19:27.560Z,14.99
2017-05-16T02:20:08.103Z,14.95
2017-05-16T02:20:48.632Z,14.98
2017-05-16T02:21:29.209Z,14.96
2017-05-16T02:22:09.712Z,14.96
2017-05-16T02:22:50.268Z,14.96
2017-05-16T02:23:30.833Z,14.92
2017-05-16T02:24:11.336Z,14.84
2017-05-16T02:24:51.886Z,14.8
2017-05-16T02:25:32.437Z,14.88
2017-05-16T02:26:12.994Z,14.88
2017-05-16T02:26:53.513Z,14.81
2017-05-16T02:27:34.038Z,14.83
2017-05-16T02:28:14.584Z,14.88
2017-05-16T02:28:55.119Z,14.8
2017-05-16T02:29:35.651Z,14.89
2017-05-16T02:30:16.184Z,14.84
2017-05-16T02:30:56.726Z,14.89
2017-05-16T02:31:37.281Z,14.88
2017-05-16T02:32:17.802Z,14.84
2017-05-16T02:32:58.384Z,14.88
2017-05-16T02:33:38.901Z,14.81
2017-05-16T02:34:19.444Z,14.84
2017-05-16T02:34:59.924Z,14.8
2017-05-16T02:35:40.470Z,14.78
2017-05-16T02:36:21.001Z,14.81
2017-05-16T02:37:01.531Z,14.88
2017-05-16T02:37:42.066Z,14.75
2017-05-16T02:38:22.593Z,14.83
2017-05-16T02:39:03.182Z,14.81
2017-05-16T02:39:43.691Z,14.8
2017-05-16T02:40:24.219Z,14.81
2017-05-16T02:41:04.757Z,14.78
2017-05-16T02:41:45.296Z,14.81
2017-05-16T02:42:25.824Z,14.8
2017-05-16T02:43:06.357Z,14.81
2017-05-16T02:43:46.909Z,14.78
2017-05-16T02:44:27.449Z,14.78
2017-05-16T02:45:07.989Z,14.81
2017-05-16T02:45:48.503Z,14.81
2017-05-16T02:46:29.043Z,14.78
2017-05-16T02:47:09.582Z,14.75
2017-05-16T02:47:50.147Z,14.84
2017-05-16T02:48:30.710Z,14.83
2017-05-16T02:49:11.254Z,14.81
2017-05-16T02:49:51.786Z,14.88
2017-05-16T02:50:32.323Z,14.83
2017-05-16T02:51:12.854Z,14.86
2017-05-16T02:51:53.394Z,14.88
2017-05-16T02:52:33.951Z,14.83
2017-05-16T02:53:14.481Z,14.84
2017-05-16T02:53:55.015Z,14.84
2017-05-16T02:54:35.564Z,14.84
2017-05-16T02:55:16.091Z,14.91
2017-05-16T02:55:56.617Z,14.83
2017-05-16T02:56:37.152Z,14.88
2017-05-16T02:57:17.694Z,14.84
2017-05-16T02:57:58.224Z,14.81
2017-05-16T02:58:38.767Z,14.83
2017-05-16T02:59:19.298Z,14.83
2017-05-16T02:59:59.869Z,14.89
2017-05-16T03:00:40.434Z,14.95
2017-05-16T03:01:20.979Z,14.89
2017-05-16T03:02:01.513Z,14.96
2017-05-16T03:02:42.105Z,14.94
2017-05-16T03:03:22.591Z,14.92
2017-05-16T03:04:03.151Z,14.95
2017-05-16T03:04:43.702Z,14.94
2017-05-16T03:05:24.251Z,14.98
2017-05-16T03:06:04.794Z,14.95
2017-05-16T03:06:45.333Z,14.95
2017-05-16T03:07:25.869Z,14.96
2017-05-16T03:08:06.412Z,14.98
2017-05-16T03:08:46.958Z,14.95
2017-05-16T03:09:27.507Z,14.96
2017-05-16T03:10:08.035Z,14.96
2017-05-16T03:10:48.609Z,14.96
2017-05-16T03:11:29.122Z,14.96
2017-05-16T03:12:09.648Z,14.98
2017-05-16T03:12:50.184Z,14.95
2017-05-16T03:13:30.724Z,14.99
2017-05-16T03:14:11.263Z,14.99
2017-05-16T03:14:51.795Z,14.95
2017-05-16T03:15:32.329Z,14.89
2017-05-16T03:16:12.854Z,14.95
2017-05-16T03:16:53.405Z,14.91
2017-05-16T03:17:33.953Z,14.94
2017-05-16T03:18:14.491Z,15.02
2017-05-16T03:18:55.057Z,14.91
2017-05-16T03:19:35.606Z,14.99
2017-05-16T03:20:16.152Z,14.99
2017-05-16T03:20:56.702Z,14.95
2017-05-16T03:21:37.246Z,14.98
2017-05-16T03:22:17.797Z,14.96
2017-05-16T03:22:58.321Z,14.98
2017-05-16T03:23:38.914Z,14.94
2017-05-16T03:24:19.451Z,14.98
2017-05-16T03:24:59.990Z,14.98
2017-05-16T03:25:40.538Z,14.99
2017-05-16T03:26:21.074Z,14.96
2017-05-16T03:27:01.640Z,14.96
2017-05-16T03:27:42.182Z,14.94
2017-05-16T03:28:22.770Z,14.99
2017-05-16T03:29:03.340Z,14.96
2017-05-16T03:29:43.837Z,14.98
2017-05-16T03:30:24.404Z,14.98
2017-05-16T03:31:04.954Z,14.95
2017-05-16T03:31:45.481Z,14.95
2017-05-16T03:32:26.015Z,14.94
2017-05-16T03:33:06.553Z,14.96
2017-05-16T03:33:47.080Z,14.88
2017-05-16T03:34:27.624Z,14.88
2017-05-16T03:35:08.144Z,14.77
2017-05-16T03:35:48.679Z,14.84
2017-05-16T03:36:29.226Z,14.91
2017-05-16T03:37:09.731Z,14.88
2017-05-16T03:37:50.261Z,14.88
2017-05-16T03:38:30.801Z,14.81
2017-05-16T03:39:11.326Z,14.88
2017-05-16T03:39:51.894Z,14.83
2017-05-16T03:40:32.468Z,14.88
2017-05-16T03:41:13.006Z,14.81
2017-05-16T03:41:53.556Z,14.88
2017-05-16T03:42:34.102Z,14.84
2017-05-16T03:43:14.659Z,14.91
2017-05-16T03:43:55.204Z,14.84
2017-05-16T03:44:35.745Z,14.91
2017-05-16T03:45:16.286Z,14.88
2017-05-16T03:45:56.831Z,14.88
2017-05-16T03:46:37.384Z,14.86
2017-05-16T03:47:17.938Z,14.84
2017-05-16T03:47:58.468Z,14.88
2017-05-16T03:48:39.006Z,14.88
2017-05-16T03:49:19.528Z,14.84
2017-05-16T03:50:00.061Z,14.89
2017-05-16T03:50:40.600Z,14.89
2017-05-16T03:51:21.241Z,14.83
2017-05-16T03:52:01.744Z,14.84
2017-05-16T03:52:42.303Z,14.84
2017-05-16T03:53:22.846Z,14.86
2017-05-16T03:54:03.389Z,14.84
2017-05-16T03:54:43.939Z,14.96
2017-05-16T03:55:24.461Z,14.96
2017-05-16T03:56:05.025Z,14.99
2017-05-16T03:56:45.566Z,14.96
2017-05-16T03:57:26.120Z,14.94
2017-05-16T03:58:06.700Z,14.96
2017-05-16T03:58:47.260Z,14.96
2017-05-16T03:59:27.789Z,15.01
2017-05-16T04:00:08.346Z,14.95
2017-05-16T04:00:48.912Z,14.96
2017-05-16T04:01:29.440Z,14.98
2017-05-16T04:02:09.972Z,15.01
2017-05-16T04:02:50.562Z,14.96
2017-05-16T04:03:31.089Z,14.94
2017-05-16T04:04:11.641Z,14.99
2017-05-16T04:04:52.200Z,14.98
2017-05-16T04:05:32.756Z,14.96
2017-05-16T04:06:13.309Z,15.03
2017-05-16T04:06:53.861Z,15.03
2017-05-16T04:07:34.438Z,15.03
2017-05-16T04:08:14.923Z,15.02
2017-05-16T04:08:55.481Z,15.01
2017-05-16T04:09:36.018Z,15.03
2017-05-16T04:10:16.550Z,15.03
2017-05-16T04:10:57.097Z,15.14
2017-05-16T04:11:37.639Z,14.99
2017-05-16T04:12:18.165Z,15.01
2017-05-16T04:12:58.736Z,15.14
2017-05-16T04:13:39.323Z,15.01
2017-05-16T04:14:19.874Z,15.02
2017-05-16T04:15:00.426Z,15.02
2017-05-16T04:15:40.963Z,15.06
2017-05-16T04:16:21.494Z,15.06
2017-05-16T04:17:02.030Z,15.07
2017-05-16T04:17:42.585Z,15.07
2017-05-16T04:18:23.136Z,15.03
2017-05-16T04:19:03.675Z,15.01
2017-05-16T04:19:44.196Z,15.07
2017-05-16T04:20:24.800Z,15.1
2017-05-16T04:21:05.333Z,15.06
2017-05-16T04:21:45.867Z,15.1
2017-05-16T04:22:26.396Z,15.02
2017-05-16T04:23:06.955Z,15.06
2017-05-16T04:23:47.520Z,15.13
2017-05-16T04:24:28.070Z,15.03
2017-05-16T04:25:08.607Z,15.1
2017-05-16T04:25:49.139Z,15.14
2017-05-16T04:26:29.730Z,15.03
2017-05-16T04:27:10.271Z,15.03
2017-05-16T04:27:50.823Z,15.09
2017-05-16T04:28:31.351Z,15.03
2017-05-16T04:29:12.903Z,15.16
2017-05-16T04:29:53.485Z,15.14
2017-05-16T04:30:34.094Z,15.14
2017-05-16T04:31:14.629Z,15.13
2017-05-16T04:31:55.170Z,15.14
2017-05-16T04:32:35.734Z,15.16
2017-05-16T04:33:16.278Z,15.16
2017-05-16T04:33:56.791Z,15.19
2017-05-16T04:34:37.363Z,15.19
2017-05-16T04:35:17.895Z,15.17
2017-05-16T04:35:58.471Z,15.17
2017-05-16T04:36:39.070Z,15.19
2017-05-16T04:37:19.575Z,15.17
2017-05-16T04:38:00.129Z,15.17
2017-05-16T04:38:40.705Z,15.19
2017-05-16T04:39:21.248Z,15.2
2017-05-16T04:40:01.783Z,15.31
2017-05-16T04:40:42.341Z,15.21
2017-05-16T04:41:22.938Z,15.2
2017-05-16T04:42:03.543Z,15.27
2017-05-16T04:42:44.100Z,15.27
2017-05-16T04:43:24.638Z,15.29
2017-05-16T04:44:05.186Z,15.25
2017-05-16T04:44:45.736Z,15.23
2017-05-16T04:45:26.258Z,15.32
2017-05-16T04:46:06.807Z,15.32
2017-05-16T04:46:47.384Z,15.27
2017-05-16T04:47:27.923Z,15.31
2017-05-16T04:48:08.498Z,15.29
2017-05-16T04:48:49.045Z,15.25
2017-05-16T04:49:29.594Z,15.27
2017-05-16T04:50:10.154Z,15.32
2017-05-16T04:50:50.690Z,15.32
2017-05-16T04:51:31.227Z,15.27
2017-05-16T04:52:11.779Z,15.25
2017-05-16T04:52:52.319Z,15.31
2017-05-16T04:53:32.874Z,15.28
2017-05-16T04:54:13.445Z,15.29
2017-05-16T04:54:53.973Z,15.28
2017-05-16T04:55:34.532Z,15.25
2017-05-16T04:56:15.088Z,15.28
2017-05-16T04:56:55.615Z,15.38
2017-05-16T04:57:36.155Z,15.36
2017-05-16T04:58:16.701Z,15.38
2017-05-16T04:58:57.246Z,15.34
2017-05-16T04:59:37.786Z,15.31
2017-05-16T05:00:18.324Z,15.31
2017-05-16T05:00:58.864Z,15.31
2017-05-16T05:01:39.408Z,15.29
2017-05-16T05:02:19.954Z,15.38
2017-05-16T05:03:00.497Z,15.38
2017-05-16T05:03:41.040Z,15.35
2017-05-16T05:04:21.582Z,15.39
2017-05-16T05:05:02.172Z,15.34
2017-05-16T05:05:42.686Z,15.41
2017-05-16T05:06:23.226Z,15.41
2017-05-16T05:07:03.801Z,15.41
2017-05-16T05:07:44.350Z,15.44
2017-05-16T05:08:24.904Z,15.44
2017-05-16T05:09:05.471Z,15.44
2017-05-16T05:09:46.010Z,15.44
2017-05-16T05:10:26.560Z,15.51
2017-05-16T05:11:07.081Z,15.5
2017-05-16T05:11:47.618Z,15.51
2017-05-16T05:12:28.217Z,15.49
2017-05-16T05:13:08.778Z,15.59
2017-05-16T05:13:49.321Z,15.56
2017-05-16T05:14:29.872Z,15.59
2017-05-16T05:15:10.419Z,15.6
2017-05-16T05:15:50.985Z,15.65
2017-05-16T05:16:31.523Z,15.56
2017-05-16T05:17:12.069Z,15.62
2017-05-16T05:17:52.617Z,15.68
2017-05-16T05:18:33.172Z,15.69
2017-05-16T05:19:13.702Z,15.72
2017-05-16T05:19:54.267Z,15.72
2017-05-16T05:20:34.840Z,15.67
2017-05-16T05:21:15.390Z,15.76
2017-05-16T05:21:55.938Z,15.76
2017-05-16T05:22:36.470Z,15.78
2017-05-16T05:23:17.007Z,15.82
2017-05-16T05:23:57.605Z,15.75
2017-05-16T05:24:38.168Z,15.83
2017-05-16T05:25:18.720Z,15.86
2017-05-16T05:25:59.275Z,15.89
2017-05-16T05:26:39.822Z,15.87
2017-05-16T05:27:20.415Z,15.89
2017-05-16T05:28:00.975Z,15.96
2017-05-16T05:28:41.543Z,15.96
2017-05-16T05:29:22.072Z,16.01
2017-05-16T05:30:02.619Z,16
2017-05-16T05:30:43.184Z,16.02
2017-05-16T05:31:23.746Z,16.04
2017-05-16T05:32:04.288Z,16.05
2017-05-16T05:32:44.836Z,15.9
2017-05-16T05:33:25.397Z,15.92
2017-05-16T05:34:05.937Z,16.01
2017-05-16T05:34:46.508Z,16.04
2017-05-16T05:35:27.041Z,16.05
2017-05-16T05:36:07.565Z,16
2017-05-16T05:36:48.138Z,16
2017-05-16T05:37:28.691Z,15.97
2017-05-16T05:38:09.261Z,16.02
2017-05-16T05:38:49.817Z,16.04
2017-05-16T05:39:30.392Z,16
2017-05-16T05:40:11.008Z,16.01
2017-05-16T05:40:51.649Z,16.01
2017-05-16T05:41:32.245Z,16
2017-05-16T05:42:12.757Z,15.97
2017-05-16T05:42:53.283Z,16.02
2017-05-16T05:43:33.858Z,16.05
2017-05-16T05:44:14.413Z,16
2017-05-16T05:44:54.974Z,16.01
2017-05-16T05:45:35.520Z,16.05
2017-05-16T05:46:16.066Z,16.02
2017-05-16T05:46:56.626Z,16.07
2017-05-16T05:47:37.171Z,16.02
2017-05-16T05:48:17.724Z,16.05
2017-05-16T05:48:58.276Z,16.04
2017-05-16T05:49:38.779Z,15.96
2017-05-16T05:50:19.318Z,16.11
2017-05-16T05:50:59.849Z,16.09
2017-05-16T05:51:40.382Z,16.05
2017-05-16T05:52:20.903Z,16.14
2017-05-16T05:53:01.435Z,16.08
2017-05-16T05:53:42.106Z,16.12
2017-05-16T05:54:22.631Z,16.23
2017-05-16T05:55:03.502Z,16.2
2017-05-16T05:55:44.194Z,16.11
2017-05-16T05:56:24.718Z,16.12
2017-05-16T05:57:05.254Z,16.11
2017-05-16T05:57:45.863Z,16.2
2017-05-16T05:58:26.438Z,16.27
2017-05-16T05:59:06.945Z,16.23
2017-05-16T05:59:47.492Z,16.24
2017-05-16T06:00:28.037Z,16.28
2017-05-16T06:01:08.590Z,16.2
2017-05-16T06:01:49.161Z,16.23
2017-05-16T06:02:29.733Z,16.25
2017-05-16T06:03:10.285Z,16.34
2017-05-16T06:03:50.809Z,16.33
2017-05-16T06:04:31.357Z,16.25
2017-05-16T06:05:11.896Z,16.42
2017-05-16T06:05:52.447Z,16.45
2017-05-16T06:06:33.001Z,16.52
2017-05-16T06:07:13.532Z,16.45
2017-05-16T06:07:54.147Z,16.41
2017-05-16T06:08:34.760Z,16.45
2017-05-16T06:09:15.390Z,16.6
2017-05-16T06:09:55.938Z,16.63
2017-05-16T06:10:36.476Z,16.58
2017-05-16T06:11:17.021Z,16.68
2017-05-16T06:11:57.560Z,16.64
2017-05-16T06:12:38.206Z,16.67
2017-05-16T06:13:19.594Z,16.67
2017-05-16T06:14:00.169Z,16.66
2017-05-16T06:14:40.747Z,16.64
2017-05-16T06:15:21.301Z,16.66
2017-05-16T06:16:01.868Z,16.81
2017-05-16T06:16:42.449Z,16.85
2017-05-16T06:17:22.984Z,16.88
2017-05-16T06:18:03.529Z,16.81
2017-05-16T06:18:44.083Z,16.83
2017-05-16T06:20:58.371Z,16.83
2017-05-16T06:21:38.948Z,16.93
2017-05-16T06:22:19.504Z,16.91
2017-05-16T06:23:00.036Z,16.97
2017-05-16T06:23:40.575Z,16.94
2017-05-16T06:24:21.126Z,17.01
2017-05-16T06:25:01.709Z,16.93
2017-05-16T06:25:42.254Z,16.98
2017-05-16T06:26:22.797Z,17
2017-05-16T06:27:03.889Z,17.06
2017-05-16T06:27:44.724Z,17.04
2017-05-16T06:28:25.290Z,17.06
2017-05-16T06:29:05.831Z,17.03
2017-05-16T06:29:46.396Z,17.07
2017-05-16T06:30:26.952Z,17.08
2017-05-16T06:31:07.491Z,17.04
2017-05-16T06:31:48.052Z,17.18
2017-05-16T06:32:28.558Z,17.03
2017-05-16T06:33:09.140Z,17.21
2017-05-16T06:33:49.656Z,17.21
2017-05-16T06:34:30.238Z,17.18
2017-05-16T06:35:10.747Z,17.28
2017-05-16T06:35:51.342Z,17.33
2017-05-16T06:36:31.855Z,17.28
2017-05-16T06:37:12.400Z,17.4
2017-05-16T06:37:53.048Z,17.38
2017-05-16T06:38:33.574Z,17.44
2017-05-16T06:39:14.103Z,17.38
2017-05-16T06:39:54.649Z,17.49
2017-05-16T06:40:35.201Z,17.54
2017-05-16T06:41:15.710Z,17.51
2017-05-16T06:41:56.257Z,17.58
2017-05-16T06:42:36.797Z,17.55
2017-05-16T06:43:17.348Z,17.63
2017-05-16T06:43:57.914Z,17.66
2017-05-16T06:44:38.435Z,17.75
2017-05-16T06:45:18.991Z,17.79
2017-05-16T06:45:59.530Z,17.77
2017-05-16T06:46:40.082Z,17.92
2017-05-16T06:47:20.644Z,17.92
2017-05-16T06:48:01.185Z,17.9
2017-05-16T06:48:41.710Z,17.92
2017-05-16T06:49:22.256Z,17.96
2017-05-16T06:50:02.808Z,17.92
2017-05-16T06:50:43.341Z,17.92
2017-05-16T06:51:23.871Z,17.9
2017-05-16T06:52:04.420Z,17.99
2017-05-16T06:52:44.962Z,17.93
2017-05-16T06:53:25.508Z,17.93
2017-05-16T06:54:06.063Z,17.95
2017-05-16T06:54:46.617Z,17.9
2017-05-16T06:55:27.158Z,17.93
2017-05-16T06:56:07.711Z,17.93
2017-05-16T06:56:48.263Z,17.93
2017-05-16T06:57:28.813Z,17.92
2017-05-16T06:58:09.368Z,17.93
2017-05-16T06:58:49.917Z,17.87
2017-05-16T06:59:30.462Z,17.97
2017-05-16T07:00:11.000Z,17.97
2017-05-16T07:00:51.550Z,17.99
2017-05-16T07:01:32.079Z,17.9
2017-05-16T07:02:12.672Z,18
2017-05-16T07:02:53.271Z,17.97
2017-05-16T07:03:33.768Z,18.05
2017-05-16T07:04:14.324Z,18.05
2017-05-16T07:04:54.868Z,18.08
2017-05-16T07:05:35.419Z,18.03
2017-05-16T07:06:15.953Z,18.14
2017-05-16T07:06:56.525Z,18.17
2017-05-16T07:07:37.052Z,18.12
2017-05-16T07:08:17.590Z,18.27
2017-05-16T07:08:58.135Z,18.23
2017-05-16T07:09:38.684Z,18.26
2017-05-16T07:10:19.230Z,18.29
2017-05-16T07:10:59.795Z,18.36
2017-05-16T07:11:40.313Z,18.35
2017-05-16T07:12:20.856Z,18.48
2017-05-16T07:13:01.392Z,18.44
2017-05-16T07:13:41.933Z,18.45
2017-05-16T07:14:22.472Z,18.51
2017-05-16T07:15:03.014Z,18.51
2017-05-16T07:15:43.573Z,18.65
2017-05-16T07:16:24.107Z,18.6
2017-05-16T07:17:04.642Z,18.66
2017-05-16T07:17:45.180Z,18.75
2017-05-16T07:18:25.706Z,18.67
2017-05-16T07:19:06.277Z,18.78
2017-05-16T07:19:46.834Z,18.8
2017-05-16T07:20:27.373Z,18.9
2017-05-16T07:21:07.912Z,18.85
2017-05-16T07:21:48.451Z,18.94
2017-05-16T07:22:29.018Z,18.9
2017-05-16T07:23:09.576Z,18.92
2017-05-16T07:23:50.155Z,18.9
2017-05-16T07:24:30.698Z,18.95
2017-05-16T07:25:11.231Z,19.02
2017-05-16T07:25:51.770Z,19.08
2017-05-16T07:26:32.311Z,19.14
2017-05-16T07:27:12.845Z,19.19
2017-05-16T07:27:53.417Z,19.16
2017-05-16T07:28:33.996Z,19.29
2017-05-16T07:29:14.514Z,19.29
2017-05-16T07:29:55.069Z,19.29
2017-05-16T07:30:35.628Z,19.28
2017-05-16T07:31:16.175Z,19.37
2017-05-16T07:31:56.731Z,19.46
2017-05-16T07:32:37.264Z,19.4
2017-05-16T07:33:17.824Z,19.43
2017-05-16T07:33:58.379Z,19.54
2017-05-16T07:34:38.913Z,19.54
2017-05-16T07:35:19.500Z,19.51
2017-05-16T07:36:00.028Z,19.51
2017-05-16T07:36:40.583Z,19.5
2017-05-16T07:37:21.121Z,19.55
2017-05-16T07:38:01.663Z,19.54
2017-05-16T07:38:42.194Z,19.56
2017-05-16T07:39:22.764Z,19.59
2017-05-16T07:40:03.315Z,19.65
2017-05-16T07:40:43.847Z,19.74
2017-05-16T07:41:24.384Z,19.74
2017-05-16T07:42:04.942Z,19.76
2017-05-16T07:42:45.578Z,19.73
2017-05-16T07:43:26.154Z,19.78
2017-05-16T07:44:06.674Z,19.71
2017-05-16T07:44:47.220Z,19.69
2017-05-16T07:45:27.744Z,19.73
2017-05-16T07:46:08.278Z,19.69
2017-05-16T07:46:48.824Z,19.66
2017-05-16T07:47:29.371Z,19.77
2017-05-16T07:48:09.940Z,19.74
2017-05-16T07:48:50.485Z,19.8
2017-05-16T07:49:31.025Z,19.86
2017-05-16T07:50:11.582Z,19.74
2017-05-16T07:50:52.131Z,19.91
2017-05-16T07:51:32.750Z,19.91
2017-05-16T07:52:13.254Z,19.84
2017-05-16T07:52:53.802Z,19.87
2017-05-16T07:53:34.385Z,19.95
2017-05-16T07:54:14.918Z,19.96
2017-05-16T07:54:55.468Z,20.02
2017-05-16T07:55:36.103Z,19.99
2017-05-16T07:56:16.665Z,19.99
2017-05-16T07:56:57.214Z,20.01
2017-05-16T07:57:37.763Z,20.06
2017-05-16T07:58:18.307Z,20.02
2017-05-16T07:58:58.859Z,20.11
2017-05-16T07:59:39.393Z,20.14
2017-05-16T08:00:19.936Z,20.13
2017-05-16T08:01:00.468Z,20.16
2017-05-16T08:01:41.006Z,20.18
2017-05-16T08:02:21.569Z,20.17
2017-05-16T08:03:02.108Z,20.18
2017-05-16T08:03:42.649Z,20.18
2017-05-16T08:04:23.182Z,20.26
2017-05-16T08:05:03.723Z,20.28
2017-05-16T08:05:44.280Z,20.5
2017-05-16T08:06:24.832Z,20.57
2017-05-16T08:07:05.372Z,20.5
2017-05-16T08:07:45.925Z,20.66
2017-05-16T08:08:26.477Z,20.74
2017-05-16T08:09:07.028Z,20.8
2017-05-16T08:09:47.572Z,20.94
2017-05-16T08:10:28.123Z,20.94
2017-05-16T08:11:08.670Z,20.94
2017-05-16T08:11:49.231Z,20.94
2017-05-16T08:12:29.800Z,21.01
2017-05-16T08:13:10.389Z,20.97
2017-05-16T08:13:50.927Z,21.14
2017-05-16T08:14:31.426Z,21.19
2017-05-16T08:15:11.961Z,21.29
2017-05-16T08:15:52.511Z,21.21
2017-05-16T08:16:33.055Z,21.27
2017-05-16T08:17:13.596Z,21.27
2017-05-16T08:17:54.134Z,21.17
2017-05-16T08:18:34.669Z,21.35
2017-05-16T08:19:15.192Z,21.19
2017-05-16T08:19:55.731Z,21.21
2017-05-16T08:20:36.268Z,21.4
2017-05-16T08:21:16.811Z,21.35
2017-05-16T08:21:57.358Z,21.4
2017-05-16T08:22:37.893Z,21.56
2017-05-16T08:23:18.428Z,21.65
2017-05-16T08:23:58.977Z,21.5
2017-05-16T08:24:39.526Z,21.74
2017-05-16T08:25:20.068Z,21.71
2017-05-16T08:26:00.633Z,21.8
2017-05-16T08:26:41.185Z,21.83
2017-05-16T08:27:21.707Z,21.9
2017-05-16T08:28:02.257Z,21.83
2017-05-16T08:28:42.800Z,21.88
2017-05-16T08:29:23.349Z,21.91
2017-05-16T08:30:03.887Z,21.91
2017-05-16T08:30:44.445Z,21.88
2017-05-16T08:31:25.002Z,21.9
2017-05-16T08:32:05.543Z,21.91
2017-05-16T08:32:46.097Z,21.84
2017-05-16T08:33:26.655Z,22.05
2017-05-16T08:34:07.192Z,22.02
2017-05-16T08:34:47.754Z,22.1
2017-05-16T08:35:28.310Z,22.18
2017-05-16T08:36:08.870Z,22.21
2017-05-16T08:36:49.428Z,22.2
2017-05-16T08:37:29.973Z,22.28
2017-05-16T08:38:10.586Z,22.43
2017-05-16T08:38:51.129Z,22.67
2017-05-16T08:39:31.671Z,22.76
2017-05-16T08:40:12.254Z,22.91
2017-05-16T08:40:52.803Z,23.01
2017-05-16T08:41:33.390Z,23.02
2017-05-16T08:42:13.941Z,23.12
2017-05-16T08:42:54.499Z,23.19
2017-05-16T08:43:35.049Z,23.25
2017-05-16T08:44:15.643Z,23.23
2017-05-16T08:44:56.195Z,23.19
2017-05-16T08:45:36.728Z,23.19